Friday, May 25, 2018, 8:56 AM EDT
Back to Local

KDOV, Dover Air Force Base

Location: Dover, DE, United States Lat: 39.133
Local Time: 8:56 AM EDT (12:56 GMT) Lon: -75.467
Time Zone: US/Eastern Elev: 29 ft

Show me the last for .
Show Coded

Time T Td Feel RH Dir Speed Gust Alt SLP Vis Weather Sky Remarks
2018-05-25 07:56 69 63 - 80 210° 10 - 30.09 30.10 10 CLR 6-hr Min Temp (8am): 62.1°F
6-hr Max Temp (8am): 69.1°F
2018-05-25 06:56 64 62 - 92 220° 7 - 30.10 30.11 10 CLR None
2018-05-25 05:56 62 60 - 93 190° 6 - 30.09 30.10 10 CLR None
2018-05-25 04:56 62 60 - 92 190° 7 - 30.09 30.10 10 CLR None
2018-05-25 03:56 62 60 - 90 200° 7 - 30.09 30.10 10 CLR None
2018-05-25 02:56 63 58 - 85 190° 7 - 30.10 30.11 10 CLR None
2018-05-25 01:56 64 58 - 82 210° 8 - 30.12 30.13 10 CLR 6-hr Min Temp (2am): 63.1°F
6-hr Max Temp (2am): 70.3°F
2018-05-25 00:56 64 57 - 76 180° 8 - 30.13 30.14 10 CLR 24-hr Min Temp (1am): 59.2°F
24-hr Max Temp (1am): 82.4°F
2018-05-24 23:56 64 56 - 75 190° 8 - 30.14 30.15 10 CLR None
2018-05-24 22:56 64 56 - 74 170° 8 - 30.14 30.15 10 CLR None
2018-05-24 21:56 65 55 - 69 170° 7 - 30.14 30.15 10 CLR None
2018-05-24 20:56 67 56 - 69 140° 5 - 30.13 30.14 10 CLR None
2018-05-24 19:56 71 55 76 58 140° 8 - 30.12 30.13 10 CLR 6-hr Min Temp (8pm): 70.5°F
6-hr Max Temp (8pm): 82.4°F
2018-05-24 18:56 73 55 76 52 130° 8 - 30.12 30.13 10 CLR None
2018-05-24 17:56 76 58 78 54 110° 10 - 30.12 30.13 10 CLR None
2018-05-24 16:56 80 50 - 36 120° 7 - 30.12 30.13 10 CLR None
2018-05-24 15:56 81 48 - 31 90° 6 - 30.13 30.14 10 CLR None
2018-05-24 14:56 81 49 - 31 320° 8 - 30.14 30.15 10 CLR None
2018-05-24 13:56 80 49 - 34 320° 5 - 30.15 30.16 10 CLR 6-hr Min Temp (2pm): 67.8°F
6-hr Max Temp (2pm): 80.6°F
2018-05-24 12:56 79 49 - 34 360° 8 - 30.16 30.17 10 FEW200 None
2018-05-24 11:56 78 55 78 45 330° 10 - 30.17 30.18 10 FEW200 None
2018-05-24 10:56 75 57 78 52 340° 12 - 30.16 30.17 10 CLR None
2018-05-24 09:56 73 57 77 55 340° 12 - 30.15 30.16 10 FEW200 None

Support USWX by starting your Amazon purchase here.